You are listening to:
LSZH Tower - Zurich, Switzerland

LSZH 210420Z 31002KT 9999 MIFG NSC M02/M02 Q1028 NOSIG

If stream does not start automatically press the play button